Jack Holland — WDF3615 — position and weather

sailwx.info

Track history (hours):
 
Tides and Currents Weather Stations Pressure Air Temp Water Temp Dewpoint Dewpoint Depression Visibility Wind Speed Wind Dir Waves Ship Positions

Jack Holland

Owner: Norfolk Tug Company, Norfolk, VA. More information available from US FCC via Universal Licensing System and Coast Guard Vessel Documentation Center.

Last reported at 2014-Dec-13 00:32 UTC. Time now 2014-Dec-22 02:07 UTC.
Position N 38°55' W 076°25'.
Warning: this ship's position is 9 days out of date.

Length 22 m; draft 2.5 m.

Type: Tug. MMSI: 367442020.

Date/timePositionNaut miles runAvg speedWind from/ knotsBaromVisibWave heightAir tempDewpointWater temp
2014-Dec-13 00:32N 38°55' W 076°25'8 8.0
2014-Dec-12 23:33N 39°03' W 076°23'8 7.9
2014-Dec-12 22:31N 39°11' W 076°26'8 8.0
2014-Dec-12 21:33N 39°15' W 076°34'1 0.7
2014-Dec-12 20:33N 39°15' W 076°34'9 8.3
2014-Dec-12 19:26N 39°09' W 076°24'  
2014-Dec-06 14:17N 38°13' W 075°58'39 3.3
2014-Dec-06 02:32N 38°44' W 076°28'11 8.9
2014-Dec-06 01:18N 38°55' W 076°25'7 8.8
2014-Dec-06 00:33N 39°01' W 076°22'8 7.9
2014-Dec-05 23:33N 39°09' W 076°25'8 7.8
2014-Dec-05 22:33N 39°14' W 076°32'3 2.6
2014-Dec-05 21:33N 39°15' W 076°35'0 0.4
2014-Dec-05 20:33N 39°15' W 076°35'0 0.0
2014-Dec-05 19:33N 39°15' W 076°35'0 0.0
2014-Dec-05 18:33N 39°15' W 076°35'0 0.0
2014-Dec-05 17:33N 39°15' W 076°35'0 0.0
2014-Dec-05 16:33N 39°15' W 076°35'0 0.0
2014-Dec-05 15:33N 39°15' W 076°35'0 0.0
2014-Dec-05 14:33N 39°15' W 076°35'0 0.0
2014-Dec-05 13:33N 39°15' W 076°35'1 0.5
2014-Dec-05 12:33N 39°15' W 076°34'1 0.6
2014-Dec-05 11:33N 39°15' W 076°34'1 0.6
2014-Dec-05 10:33N 39°15' W 076°35'0 0.0
2014-Dec-05 09:33N 39°15' W 076°35'0 0.0
2014-Dec-05 08:33N 39°15' W 076°35'0 0.0
2014-Dec-05 07:33N 39°15' W 076°35'0 0.0
2014-Dec-05 06:33N 39°15' W 076°35'0 0.0
2014-Dec-05 05:33N 39°15' W 076°35'0 0.0
2014-Dec-05 04:33N 39°15' W 076°35'0 0.0
2014-Dec-05 03:33N 39°15' W 076°35'0 0.0
2014-Dec-05 02:33N 39°15' W 076°35'0 0.0
2014-Dec-05 01:33N 39°15' W 076°35'0 0.0
2014-Dec-05 00:33N 39°15' W 076°35'1 1.4
2014-Dec-04 23:33N 39°16' W 076°36'1 0.6
2014-Dec-04 22:33N 39°15' W 076°36'1 0.8
2014-Dec-04 21:33N 39°15' W 076°35'0 0.0
2014-Dec-04 20:33N 39°15' W 076°35'0 0.0
2014-Dec-04 19:33N 39°15' W 076°35'0 0.0
2014-Dec-04 18:33N 39°15' W 076°35'0 0.0
2014-Dec-04 17:33N 39°15' W 076°35'0 0.0
2014-Dec-04 16:33N 39°15' W 076°35'0 0.0
2014-Dec-04 15:32N 39°15' W 076°35'0 0.0
2014-Dec-04 14:32N 39°15' W 076°35'0 0.0
2014-Dec-04 13:30N 39°15' W 076°35'0 0.0
2014-Dec-04 12:33N 39°15' W 076°35'0 0.0
2014-Dec-04 11:33N 39°15' W 076°35'0 0.0
2014-Dec-04 10:33N 39°15' W 076°35'0 0.0
2014-Dec-04 09:33N 39°15' W 076°35'0 0.0
2014-Dec-04 08:33N 39°15' W 076°35'0 0.0
2014-Dec-04 07:34N 39°15' W 076°35'0 0.0
2014-Dec-04 06:33N 39°15' W 076°35'0 0.0
2014-Dec-04 05:33N 39°15' W 076°35'0 0.0
2014-Dec-04 04:33N 39°15' W 076°35'0 0.0
2014-Dec-04 03:33N 39°15' W 076°35'0 0.0
2014-Dec-04 02:33N 39°15' W 076°35'0 0.0
2014-Dec-04 01:33N 39°15' W 076°35'0 0.0
2014-Dec-04 00:33N 39°15' W 076°35'0 0.0
2014-Dec-03 23:33N 39°15' W 076°35'0 0.0
2014-Dec-03 22:33N 39°15' W 076°35'0 0.0
2014-Dec-03 21:33N 39°15' W 076°35'0 0.0
2014-Dec-03 20:33N 39°15' W 076°35'0 0.0
2014-Dec-03 19:33N 39°15' W 076°35'0 0.0
2014-Dec-03 18:33N 39°15' W 076°35'0 0.0
2014-Dec-03 17:33N 39°15' W 076°35'0 0.0
2014-Dec-03 16:30N 39°15' W 076°35'0 0.0
2014-Dec-03 15:33N 39°15' W 076°35'0 0.0
2014-Dec-03 14:26N 39°15' W 076°35'0 0.0
2014-Dec-03 13:19N 39°15' W 076°35'0 0.0
2014-Dec-03 12:33N 39°15' W 076°35'0 0.0
2014-Dec-03 11:31N 39°15' W 076°35'0 0.0
2014-Dec-03 10:33N 39°15' W 076°35'0 0.0
2014-Dec-03 09:33N 39°15' W 076°35'0 0.0
2014-Dec-03 08:33N 39°15' W 076°35'0 0.0
2014-Dec-03 07:27N 39°15' W 076°35'0 0.0
2014-Dec-03 06:33N 39°15' W 076°35'0 0.0
2014-Dec-03 05:32N 39°15' W 076°35'0 0.0
2014-Dec-03 04:33N 39°15' W 076°35'0 0.0
2014-Dec-03 03:32N 39°15' W 076°35'0 0.0
2014-Dec-03 02:33N 39°15' W 076°35'2 2.0
2014-Dec-03 01:33N 39°17' W 076°36'0 0.0
2014-Dec-03 00:33N 39°17' W 076°36'  
Track history (hours):
 
Tides and Currents Weather Stations Pressure Air Temp Water Temp Dewpoint Dewpoint Depression Visibility Wind Speed Wind Dir Waves Ship Positions

Jack Holland

Owner: Norfolk Tug Company, Norfolk, VA. More information available from US FCC via Universal Licensing System and Coast Guard Vessel Documentation Center.

Last reported at 2014-Dec-13 00:32 UTC. Time now 2014-Dec-22 02:07 UTC.
Position N 38°55' W 076°25'.
Warning: this ship's position is 9 days out of date.

Length 22 m; draft 2.5 m.

Type: Tug. MMSI: 367442020.

Date/timePositionNaut miles runAvg speedWind from/ knotsBaromVisibWave heightAir tempDewpointWater temp
2014-Dec-13 00:32N 38°55' W 076°25'8 8.0
2014-Dec-12 23:33N 39°03' W 076°23'8 7.9
2014-Dec-12 22:31N 39°11' W 076°26'8 8.0
2014-Dec-12 21:33N 39°15' W 076°34'1 0.7
2014-Dec-12 20:33N 39°15' W 076°34'9 8.3
2014-Dec-12 19:26N 39°09' W 076°24'  
2014-Dec-06 14:17N 38°13' W 075°58'39 3.3
2014-Dec-06 02:32N 38°44' W 076°28'11 8.9
2014-Dec-06 01:18N 38°55' W 076°25'7 8.8
2014-Dec-06 00:33N 39°01' W 076°22'8 7.9
2014-Dec-05 23:33N 39°09' W 076°25'8 7.8
2014-Dec-05 22:33N 39°14' W 076°32'3 2.6
2014-Dec-05 21:33N 39°15' W 076°35'0 0.4
2014-Dec-05 20:33N 39°15' W 076°35'0 0.0
2014-Dec-05 19:33N 39°15' W 076°35'0 0.0
2014-Dec-05 18:33N 39°15' W 076°35'0 0.0
2014-Dec-05 17:33N 39°15' W 076°35'0 0.0
2014-Dec-05 16:33N 39°15' W 076°35'0 0.0
2014-Dec-05 15:33N 39°15' W 076°35'0 0.0
2014-Dec-05 14:33N 39°15' W 076°35'0 0.0
2014-Dec-05 13:33N 39°15' W 076°35'1 0.5
2014-Dec-05 12:33N 39°15' W 076°34'1 0.6
2014-Dec-05 11:33N 39°15' W 076°34'1 0.6
2014-Dec-05 10:33N 39°15' W 076°35'0 0.0
2014-Dec-05 09:33N 39°15' W 076°35'0 0.0
2014-Dec-05 08:33N 39°15' W 076°35'0 0.0
2014-Dec-05 07:33N 39°15' W 076°35'0 0.0
2014-Dec-05 06:33N 39°15' W 076°35'0 0.0
2014-Dec-05 05:33N 39°15' W 076°35'0 0.0
2014-Dec-05 04:33N 39°15' W 076°35'0 0.0
2014-Dec-05 03:33N 39°15' W 076°35'0 0.0
2014-Dec-05 02:33N 39°15' W 076°35'0 0.0
2014-Dec-05 01:33N 39°15' W 076°35'0 0.0
2014-Dec-05 00:33N 39°15' W 076°35'1 1.4
2014-Dec-04 23:33N 39°16' W 076°36'1 0.6
2014-Dec-04 22:33N 39°15' W 076°36'1 0.8
2014-Dec-04 21:33N 39°15' W 076°35'0 0.0
2014-Dec-04 20:33N 39°15' W 076°35'0 0.0
2014-Dec-04 19:33N 39°15' W 076°35'0 0.0
2014-Dec-04 18:33N 39°15' W 076°35'0 0.0
2014-Dec-04 17:33N 39°15' W 076°35'0 0.0
2014-Dec-04 16:33N 39°15' W 076°35'0 0.0
2014-Dec-04 15:32N 39°15' W 076°35'0 0.0
2014-Dec-04 14:32N 39°15' W 076°35'0 0.0
2014-Dec-04 13:30N 39°15' W 076°35'0 0.0
2014-Dec-04 12:33N 39°15' W 076°35'0 0.0
2014-Dec-04 11:33N 39°15' W 076°35'0 0.0
2014-Dec-04 10:33N 39°15' W 076°35'0 0.0
2014-Dec-04 09:33N 39°15' W 076°35'0 0.0
2014-Dec-04 08:33N 39°15' W 076°35'0 0.0
2014-Dec-04 07:34N 39°15' W 076°35'0 0.0
2014-Dec-04 06:33N 39°15' W 076°35'0 0.0
2014-Dec-04 05:33N 39°15' W 076°35'0 0.0
2014-Dec-04 04:33N 39°15' W 076°35'0 0.0
2014-Dec-04 03:33N 39°15' W 076°35'0 0.0
2014-Dec-04 02:33N 39°15' W 076°35'0 0.0
2014-Dec-04 01:33N 39°15' W 076°35'0 0.0
2014-Dec-04 00:33N 39°15' W 076°35'0 0.0
2014-Dec-03 23:33N 39°15' W 076°35'0 0.0
2014-Dec-03 22:33N 39°15' W 076°35'0 0.0
2014-Dec-03 21:33N 39°15' W 076°35'0 0.0
2014-Dec-03 20:33N 39°15' W 076°35'0 0.0
2014-Dec-03 19:33N 39°15' W 076°35'0 0.0
2014-Dec-03 18:33N 39°15' W 076°35'0 0.0
2014-Dec-03 17:33N 39°15' W 076°35'0 0.0
2014-Dec-03 16:30N 39°15' W 076°35'0 0.0
2014-Dec-03 15:33N 39°15' W 076°35'0 0.0
2014-Dec-03 14:26N 39°15' W 076°35'0 0.0
2014-Dec-03 13:19N 39°15' W 076°35'0 0.0
2014-Dec-03 12:33N 39°15' W 076°35'0 0.0
2014-Dec-03 11:31N 39°15' W 076°35'0 0.0
2014-Dec-03 10:33N 39°15' W 076°35'0 0.0
2014-Dec-03 09:33N 39°15' W 076°35'0 0.0
2014-Dec-03 08:33N 39°15' W 076°35'0 0.0
2014-Dec-03 07:27N 39°15' W 076°35'0 0.0
2014-Dec-03 06:33N 39°15' W 076°35'0 0.0
2014-Dec-03 05:32N 39°15' W 076°35'0 0.0
2014-Dec-03 04:33N 39°15' W 076°35'0 0.0
2014-Dec-03 03:32N 39°15' W 076°35'0 0.0
2014-Dec-03 02:33N 39°15' W 076°35'2 2.0
2014-Dec-03 01:33N 39°17' W 076°36'0 0.0
2014-Dec-03 00:33N 39°17' W 076°36'  

Dump ship's entire track history